Campville, New York
Current Conditions -  °F | °C
As of 6:05 AM on Sunday 23 Nov 2014 (Local Time) from KBGM Reporting Station
Overcast Overcast  
Wind Chill: 36°   Ceiling: 2900
Heat Index: 41°   Visibility: 10mi
Dew Point: 29°   Wind: 7mph
Humidity: 62%   Direction: 210°SSW
Pressure: 30.07"   Gusts: NA
Location:  42.1332°N, 76.0798°W
Report Text: KBGM 231105Z 21006KT 10SM BKN029 OVC042 05/M02 A3007 RMK AO2 T00501017
Loading
Personal Weather Stations






























Interactive Weather Map New forecast layout! Learn more

10-Day Weather Forecast

Advertisements
Track Severe Weather on mobile